Time;durP1;ratioP1;P1;durP2;ratioP2;P2;SDS_P1;SDS_P2;PMS_P1;PMS_P2;Temp;Humidity;BMP_temperature;BMP_pressure;BME280_temperature;BME280_humidity;BME280_pressure;Samples;Min_cycle;Max_cycle;Signal;HPM_P1;HPM_P2
2023/05/09 03:00:34;;;;;;;26.97;24.53;;;12.30;99.90;;;;;;5894274;23;20236;-72
2023/05/09 03:03:01;;;;;;;37.13;34.23;;;12.30;99.90;;;;;;4991221;28;20271;-73
2023/05/09 03:05:27;;;;;;;66.77;62.07;;;12.30;99.90;;;;;;4989899;28;20582;-73
2023/05/09 03:07:53;;;;;;;112.40;105.63;;;12.30;99.90;;;;;;4990463;28;20180;-73
2023/05/09 03:10:19;;;;;;;108.23;101.30;;;12.20;99.90;;;;;;4990121;28;20558;-73
2023/05/09 03:12:45;;;;;;;109.00;102.17;;;12.20;99.90;;;;;;4970636;28;20192;-73
2023/05/09 03:15:10;;;;;;;89.70;84.40;;;12.20;99.90;;;;;;5007476;23;20840;-78
2023/05/09 03:17:36;;;;;;;97.13;90.93;;;12.20;99.90;;;;;;4989899;28;20180;-77
2023/05/09 03:20:04;;;;;;;105.77;99.20;;;12.10;99.90;;;;;;4992834;28;20346;-77
2023/05/09 03:22:30;;;;;;;108.17;101.63;;;12.10;99.90;;;;;;4996868;28;20549;-77
2023/05/09 03:24:56;;;;;;;85.57;79.87;;;12.10;99.90;;;;;;4991352;28;20212;-77
2023/05/09 03:27:22;;;;;;;54.30;50.20;;;12.10;99.90;;;;;;4994470;28;20567;-77
2023/05/09 03:29:48;;;;;;;40.03;36.83;;;12.10;99.90;;;;;;4996762;28;20227;-76
2023/05/09 03:32:13;;;;;;;36.67;33.80;;;12.10;99.90;;;;;;4998260;28;20219;-77
2023/05/09 03:34:39;;;;;;;39.07;35.67;;;12.10;99.90;;;;;;4983972;28;20205;-77
2023/05/09 03:37:05;;;;;;;31.73;28.50;;;12.10;99.90;;;;;;4974354;28;20193;-77
2023/05/09 03:39:31;;;;;;;32.67;29.57;;;12.10;99.90;;;;;;4981045;28;20248;-77
2023/05/09 03:41:57;;;;;;;40.10;36.93;;;12.10;99.90;;;;;;4988540;28;20189;-77
2023/05/09 03:44:22;;;;;;;42.20;39.00;;;12.10;99.90;;;;;;4985476;28;20278;-77
2023/05/09 03:46:49;;;;;;;40.77;37.63;;;12.10;99.90;;;;;;4990361;28;20555;-77
2023/05/09 03:49:14;;;;;;;42.37;39.17;;;12.20;99.90;;;;;;5002104;28;20211;-76
2023/05/09 03:51:40;;;;;;;39.30;36.17;;;12.20;99.90;;;;;;4994713;28;20609;-77
2023/05/09 03:54:06;;;;;;;39.80;36.73;;;12.20;99.90;;;;;;4993800;28;20200;-77
2023/05/09 03:56:32;;;;;;;68.10;63.60;;;12.30;99.90;;;;;;4995951;28;20187;-78
2023/05/09 03:58:58;;;;;;;68.17;63.60;;;12.20;99.90;;;;;;4999696;28;20204;-77
2023/05/09 04:01:24;;;;;;;98.33;92.40;;;12.10;99.90;;;;;;4982323;28;20181;-78
2023/05/09 04:03:50;;;;;;;118.53;111.33;;;12.10;99.90;;;;;;4979318;28;20208;-77
2023/05/09 04:06:17;;;;;;;109.00;102.17;;;12.10;99.90;;;;;;4975465;28;20217;-78
2023/05/09 04:08:43;;;;;;;62.17;57.60;;;12.10;99.90;;;;;;4978334;28;20173;-78
2023/05/09 04:11:09;;;;;;;47.07;43.27;;;12.20;99.90;;;;;;4997820;28;20266;-78
2023/05/09 04:13:35;;;;;;;50.03;46.03;;;12.30;99.90;;;;;;4994482;28;20219;-77
2023/05/09 04:16:01;;;;;;;35.87;32.97;;;12.30;99.90;;;;;;4987862;28;20181;-77
2023/05/09 04:18:27;;;;;;;55.47;51.23;;;12.40;99.90;;;;;;4987564;28;20193;-77
2023/05/09 04:20:52;;;;;;;119.20;112.03;;;12.50;99.90;;;;;;4988527;28;20212;-77
2023/05/09 04:23:18;;;;;;;93.03;87.23;;;12.50;99.90;;;;;;5004616;28;20252;-79
2023/05/09 04:25:44;;;;;;;28.10;25.63;;;12.50;99.90;;;;;;4996213;28;20339;-79
2023/05/09 04:28:10;;;;;;;21.27;18.70;;;12.50;99.90;;;;;;4992748;28;20184;-76
2023/05/09 04:30:36;;;;;;;19.17;17.33;;;12.50;99.90;;;;;;4994828;28;20189;-76
2023/05/09 04:33:02;;;;;;;19.90;17.77;;;12.50;99.90;;;;;;4998865;28;20180;-76
2023/05/09 04:35:27;;;;;;;22.27;19.97;;;12.60;99.90;;;;;;4998430;28;20220;-75
2023/05/09 04:37:53;;;;;;;26.27;23.67;;;12.60;99.90;;;;;;4996293;28;20520;-75
2023/05/09 04:40:19;;;;;;;22.83;20.03;;;12.60;99.90;;;;;;5002136;28;20253;-74
2023/05/09 04:42:45;;;;;;;18.93;16.93;;;12.70;99.90;;;;;;5001756;28;20192;-75
2023/05/09 04:45:11;;;;;;;18.63;16.63;;;12.70;99.90;;;;;;4992404;28;20295;-75
2023/05/09 04:47:37;;;;;;;29.27;26.40;;;12.80;99.90;;;;;;4991891;28;20660;-75
2023/05/09 04:50:03;;;;;;;51.10;46.70;;;12.90;99.90;;;;;;4998421;28;20589;-78
2023/05/09 04:52:29;;;;;;;85.33;79.43;;;13.00;99.90;;;;;;4993538;28;20331;-75
2023/05/09 04:54:55;;;;;;;97.23;91.23;;;13.00;99.90;;;;;;4992460;28;20766;-76
2023/05/09 04:57:20;;;;;;;84.30;78.57;;;13.10;99.90;;;;;;4990437;28;20636;-75
2023/05/09 04:59:46;;;;;;;35.50;31.97;;;13.20;99.90;;;;;;4972435;28;20212;-75
2023/05/09 05:02:12;;;;;;;24.73;20.50;;;13.30;99.90;;;;;;4973439;28;20264;-75
2023/05/09 05:04:38;;;;;;;22.33;20.00;;;13.40;99.90;;;;;;4976502;28;20219;-77
2023/05/09 05:07:04;;;;;;;21.30;16.37;;;13.60;99.90;;;;;;4973339;28;20189;-76
2023/05/09 05:09:29;;;;;;;19.37;17.23;;;13.80;99.90;;;;;;4973334;28;20184;-74
2023/05/09 05:11:55;;;;;;;23.20;18.97;;;14.00;99.90;;;;;;4973942;28;20181;-75
2023/05/09 05:14:21;;;;;;;24.00;21.43;;;14.10;99.90;;;;;;4991992;28;20590;-75
2023/05/09 05:16:47;;;;;;;21.13;19.13;;;14.30;99.90;;;;;;4991247;28;20188;-76
2023/05/09 05:19:13;;;;;;;20.07;18.13;;;14.50;99.90;;;;;;4992212;28;20223;-76
2023/05/09 05:21:38;;;;;;;21.23;17.77;;;14.60;99.90;;;;;;4992934;28;20190;-76
2023/05/09 05:24:04;;;;;;;18.10;16.20;;;14.60;99.90;;;;;;4991641;28;20686;-76
2023/05/09 05:26:30;;;;;;;18.47;16.33;;;14.70;99.90;;;;;;4992317;28;20255;-76
2023/05/09 05:28:56;;;;;;;17.77;15.87;;;14.80;99.90;;;;;;4990661;28;20667;-76
2023/05/09 05:31:22;;;;;;;21.73;19.60;;;14.80;99.90;;;;;;4990968;28;20652;-76
2023/05/09 05:33:47;;;;;;;21.20;19.13;;;14.90;99.90;;;;;;4992407;28;20239;-76
2023/05/09 05:36:13;;;;;;;23.30;20.80;;;14.90;99.90;;;;;;4991122;28;20650;-77
2023/05/09 05:38:39;;;;;;;20.93;18.57;;;14.80;99.90;;;;;;4991755;28;20189;-76
2023/05/09 05:41:05;;;;;;;23.20;20.80;;;14.80;99.90;;;;;;4991411;28;20188;-77
2023/05/09 05:43:31;;;;;;;22.10;20.03;;;14.80;99.90;;;;;;4990327;28;20185;-76
2023/05/09 05:45:57;;;;;;;27.33;24.53;;;14.90;99.90;;;;;;4993907;28;20219;-76
2023/05/09 05:48:22;;;;;;;26.67;24.07;;;15.00;99.90;;;;;;4991443;28;20180;-76
2023/05/09 05:50:48;;;;;;;41.87;38.33;;;15.00;99.90;;;;;;4993249;28;20173;-76
2023/05/09 05:53:14;;;;;;;49.37;45.43;;;15.10;99.90;;;;;;4991519;28;20541;-75
2023/05/09 05:55:40;;;;;;;46.33;42.43;;;15.20;99.90;;;;;;4984700;28;20685;-77
2023/05/09 05:58:06;;;;;;;36.13;33.03;;;15.30;99.90;;;;;;4973320;28;20192;-74
2023/05/09 06:00:32;;;;;;;35.03;31.63;;;15.50;99.90;;;;;;4972955;28;20560;-77
2023/05/09 06:02:58;;;;;;;27.00;24.20;;;15.60;99.90;;;;;;4973380;28;20220;-76
2023/05/09 06:05:24;;;;;;;27.13;24.23;;;15.80;99.90;;;;;;4972951;28;20581;-77
2023/05/09 06:07:50;;;;;;;34.70;31.27;;;15.90;99.90;;;;;;4976704;28;20664;-76
2023/05/09 06:10:16;;;;;;;23.17;20.67;;;16.10;99.90;;;;;;4991494;28;20190;-77
2023/05/09 06:12:41;;;;;;;25.93;21.40;;;16.10;99.90;;;;;;4990937;28;20180;-77
2023/05/09 06:15:07;;;;;;;24.00;19.10;;;16.20;99.90;;;;;;4990631;28;20267;-75
2023/05/09 06:17:33;;;;;;;29.03;26.13;;;16.50;99.90;;;;;;4990707;28;20215;-69
2023/05/09 06:19:59;;;;;;;30.80;27.80;;;16.60;99.90;;;;;;4992267;28;20176;-70
2023/05/09 06:22:25;;;;;;;25.70;22.47;;;16.80;99.90;;;;;;4992168;28;20184;-70
2023/05/09 06:24:50;;;;;;;27.63;22.80;;;16.80;99.90;;;;;;4991520;28;20746;-70
2023/05/09 06:27:16;;;;;;;27.17;24.37;;;16.80;99.90;;;;;;4990220;28;20271;-71
2023/05/09 06:29:43;;;;;;;29.37;26.47;;;16.80;99.90;;;;;;4990265;28;20181;-70
2023/05/09 06:32:09;;;;;;;27.47;22.70;;;17.00;99.90;;;;;;4991697;28;20215;-70
2023/05/09 06:34:35;;;;;;;28.03;25.07;;;17.10;99.90;;;;;;4991665;28;20289;-71
2023/05/09 06:37:01;;;;;;;33.90;30.87;;;17.20;99.90;;;;;;4991433;28;20258;-72
2023/05/09 06:39:27;;;;;;;34.80;31.50;;;17.20;99.90;;;;;;4980619;28;20634;-71
2023/05/09 06:41:52;;;;;;;33.57;30.67;;;17.30;99.90;;;;;;4972305;28;20177;-72
2023/05/09 06:44:18;;;;;;;47.70;43.73;;;17.50;99.90;;;;;;4982133;28;20665;-70
2023/05/09 06:46:44;;;;;;;95.27;89.47;;;18.00;99.90;;;;;;4991232;28;20224;-72
2023/05/09 06:49:10;;;;;;;129.80;122.23;;;18.20;99.90;;;;;;4990807;28;20206;-70
2023/05/09 06:51:36;;;;;;;46.83;43.07;;;18.60;99.90;;;;;;4991103;28;20188;-71
2023/05/09 06:54:01;;;;;;;40.07;36.77;;;18.90;99.90;;;;;;4991019;28;20263;-71
2023/05/09 06:56:27;;;;;;;34.53;31.63;;;18.70;99.90;;;;;;4992250;28;20215;-72
2023/05/09 06:58:53;;;;;;;20.50;18.30;;;18.90;99.90;;;;;;4993270;28;20380;-71
2023/05/09 07:01:19;;;;;;;22.67;20.27;;;19.00;99.90;;;;;;4995183;28;20184;-72
2023/05/09 07:03:46;;;;;;;25.10;22.47;;;19.00;99.90;;;;;;4995738;28;20204;-71
2023/05/09 07:06:12;;;;;;;25.07;22.37;;;19.20;99.90;;;;;;4994831;28;20703;-71
2023/05/09 07:08:38;;;;;;;22.77;20.13;;;19.10;99.90;;;;;;4992241;28;20192;-70
2023/05/09 07:11:04;;;;;;;25.97;23.37;;;19.10;99.90;;;;;;4976282;28;20189;-71
2023/05/09 07:13:30;;;;;;;22.30;19.80;;;19.00;99.90;;;;;;4973975;28;20181;-70
2023/05/09 07:15:56;;;;;;;22.43;19.07;;;19.60;99.90;;;;;;4974327;28;20243;-71
2023/05/09 07:18:22;;;;;;;31.08;28.48;;;20.00;99.90;;;;;;4975059;28;20184;-73
2023/05/09 07:20:48;;;;;;;24.50;22.15;;;20.80;99.90;;;;;;4974345;28;20184;-71
2023/05/09 07:23:14;;;;;;;26.83;24.13;;;20.70;99.90;;;;;;4992704;28;20181;-71
2023/05/09 07:25:40;;;;;;;28.25;25.58;;;20.80;99.90;;;;;;4994466;28;20622;-70
2023/05/09 07:28:06;;;;;;;24.70;22.10;;;20.30;99.90;;;;;;4994291;28;20833;-71
2023/05/09 07:30:31;;;;;;;23.25;20.95;;;20.00;99.90;;;;;;4993501;28;20323;-71
2023/05/09 07:32:57;;;;;;;23.20;20.92;;;19.70;99.90;;;;;;4993514;28;20199;-71
2023/05/09 07:35:23;;;;;;;23.13;20.83;;;19.70;99.90;;;;;;4994464;28;20314;-71
2023/05/09 07:37:49;;;;;;;32.67;29.80;;;20.50;99.90;;;;;;4992439;28;20188;-70
2023/05/09 07:40:15;;;;;;;22.40;20.35;;;21.20;99.90;;;;;;4975274;28;20208;-74
2023/05/09 07:42:43;;;;;;;18.58;16.70;;;21.60;99.90;;;;;;4975159;28;20189;-74
2023/05/09 07:45:10;;;;;;;20.35;18.38;;;21.70;99.90;;;;;;4974910;28;20209;-74
2023/05/09 07:47:37;;;;;;;20.67;18.30;;;21.50;99.90;;;;;;4973730;28;20211;-74
2023/05/09 07:50:03;;;;;;;18.95;16.98;;;21.20;99.90;;;;;;4975320;28;20181;-74
2023/05/09 07:52:28;;;;;;;20.08;18.08;;;20.90;99.90;;;;;;4989440;28;20179;-74
2023/05/09 07:54:54;;;;;;;18.48;16.52;;;21.10;99.90;;;;;;5006150;28;20208;-74
2023/05/09 07:57:21;;;;;;;18.00;16.20;;;21.10;99.90;;;;;;4997277;28;20226;-74
2023/05/09 07:59:47;;;;;;;18.75;16.80;;;20.80;99.90;;;;;;4994402;28;20180;-75
2023/05/09 08:02:13;;;;;;;17.98;16.00;;;20.90;99.90;;;;;;4994366;28;20231;-74
2023/05/09 08:04:40;;;;;;;18.80;16.80;;;20.80;99.90;;;;;;4992783;28;20216;-74
2023/05/09 08:07:06;;;;;;;23.17;20.98;;;21.00;99.90;;;;;;4983160;28;20177;-74
2023/05/09 08:09:32;;;;;;;23.77;21.45;;;21.60;99.90;;;;;;4973349;28;20239;-75
2023/05/09 08:11:58;;;;;;;22.58;20.67;;;21.70;99.90;;;;;;4974567;28;20605;-75
2023/05/09 08:14:24;;;;;;;19.58;17.65;;;21.60;99.90;;;;;;4974979;28;20208;-75
2023/05/09 08:16:49;;;;;;;21.83;19.92;;;22.20;99.90;;;;;;4973672;28;20559;-75
2023/05/09 08:19:15;;;;;;;16.17;14.57;;;22.40;99.90;;;;;;4974562;28;20279;-75
2023/05/09 08:21:41;;;;;;;13.32;11.95;;;22.50;99.90;;;;;;4989605;28;20180;-75
2023/05/09 08:24:08;;;;;;;13.45;11.98;;;22.80;99.90;;;;;;4992555;28;20758;-75
2023/05/09 08:26:34;;;;;;;15.15;13.80;;;22.80;99.90;;;;;;4992570;28;20212;-75
2023/05/09 08:29:00;;;;;;;16.50;15.10;;;23.10;99.90;;;;;;4993350;28;20191;-74
2023/05/09 08:31:26;;;;;;;16.73;15.23;;;23.00;99.90;;;;;;4992457;28;20176;-75
2023/05/09 08:33:52;;;;;;;13.88;12.68;;;23.10;99.90;;;;;;4993405;28;20207;-74
2023/05/09 08:36:18;;;;;;;15.48;14.18;;;22.90;99.90;;;;;;4989079;28;20819;-75
2023/05/09 08:38:44;;;;;;;16.98;15.60;;;22.40;99.90;;;;;;4985359;28;20303;-74
2023/05/09 08:41:10;;;;;;;14.95;13.60;;;22.40;99.90;;;;;;4992231;28;20254;-74
2023/05/09 08:43:39;;;;;;;12.93;11.65;;;22.20;99.90;;;;;;4991814;28;20188;-75
2023/05/09 08:46:08;;;;;;;12.15;10.95;;;21.80;99.90;;;;;;4993177;28;20227;-75
2023/05/09 08:48:38;;;;;;;13.13;11.68;;;21.90;99.90;;;;;;4992634;28;20204;-75
2023/05/09 08:51:05;;;;;;;12.73;11.55;;;22.30;99.90;;;;;;4992269;28;20192;-74
2023/05/09 08:53:32;;;;;;;16.30;14.80;;;22.70;99.90;;;;;;4993016;28;20181;-75
2023/05/09 08:56:02;;;;;;;16.58;15.07;;;23.20;99.90;;;;;;4993329;28;20606;-75
2023/05/09 08:58:29;;;;;;;16.67;15.07;;;23.50;99.90;;;;;;4992536;28;20559;-73
2023/05/09 09:00:55;;;;;;;16.58;15.05;;;23.70;99.90;;;;;;4992777;28;20191;-76
2023/05/09 09:03:24;;;;;;;17.08;15.68;;;24.00;99.90;;;;;;4991356;28;20188;-75
2023/05/09 09:05:52;;;;;;;15.18;13.85;;;23.90;99.80;;;;;;4991234;28;20200;-74
2023/05/09 09:08:18;;;;;;;16.35;14.75;;;23.80;98.70;;;;;;4992250;28;20180;-74
2023/05/09 09:10:46;;;;;;;15.68;14.38;;;23.40;99.10;;;;;;4991544;28;20173;-74
2023/05/09 09:13:13;;;;;;;15.95;14.38;;;23.20;99.60;;;;;;4992352;28;20188;-74
2023/05/09 09:15:41;;;;;;;13.73;12.52;;;23.00;99.70;;;;;;5013252;23;20712;-71
2023/05/09 09:18:10;;;;;;;17.02;15.52;;;23.30;99.90;;;;;;4990704;28;20310;-70
2023/05/09 09:20:50;;;;;;;14.30;12.98;;;23.50;98.70;;;;;;4992279;28;20182;-71
2023/05/09 09:23:19;;;;;;;14.98;13.68;;;23.70;98.40;;;;;;4992549;28;20275;-71
2023/05/09 09:25:46;;;;;;;15.30;13.93;;;24.10;97.30;;;;;;4991949;28;20278;-71
2023/05/09 09:28:11;;;;;;;11.30;10.30;;;24.80;98.20;;;;;;4990577;28;20923;-68
2023/05/09 09:30:48;;;;;;;14.80;13.50;;;25.50;96.00;;;;;;4983904;28;20263;-69
2023/05/09 09:33:22;;;;;;;18.65;17.35;;;25.40;95.00;;;;;;4972370;28;20327;-70
2023/05/09 09:35:53;;;;;;;35.42;33.10;;;25.10;94.90;;;;;;4970345;28;20229;-71
2023/05/09 09:38:23;;;;;;;33.05;31.15;;;25.50;93.60;;;;;;4969403;28;20211;-71
2023/05/09 09:40:56;;;;;;;72.28;68.32;;;25.40;93.90;;;;;;4970064;28;20982;-70
2023/05/09 09:43:29;;;;;;;100.93;95.60;;;25.40;92.60;;;;;;4976378;28;20189;-70
2023/05/09 09:45:56;;;;;;;50.25;47.40;;;25.10;92.10;;;;;;4994885;28;20197;-70
2023/05/09 09:48:26;;;;;;;56.35;53.20;;;24.90;93.30;;;;;;4972680;28;20188;-70
2023/05/09 09:50:55;;;;;;;592.28;347.85;;;24.90;93.40;;;;;;4973420;28;20189;-74
2023/05/09 09:53:22;;;;;;;1999.90;960.65;;;25.00;93.30;;;;;;4973320;28;20268;-71
2023/05/09 09:55:52;;;;;;;1999.90;929.05;;;25.30;93.00;;;;;;4963468;28;20223;-72
2023/05/09 09:58:20;;;;;;;833.03;373.85;;;25.00;92.40;;;;;;4963471;28;20251;-71
2023/05/09 10:01:02;;;;;;;1744.22;619.63;;;25.30;91.30;;;;;;4990545;28;20184;-70
2023/05/09 10:03:41;;;;;;;131.57;120.40;;;25.40;91.90;;;;;;4991275;28;20192;-75
2023/05/09 10:06:15;;;;;;;99.65;94.38;;;25.90;90.70;;;;;;4974236;28;20313;-81
2023/05/09 10:08:43;;;;;;;94.68;89.95;;;26.30;90.00;;;;;;4991061;28;20223;-70
2023/05/09 10:11:09;;;;;;;96.40;91.45;;;25.70;89.00;;;;;;4991949;28;20211;-71
2023/05/09 10:13:37;;;;;;;96.97;92.18;;;25.70;91.00;;;;;;4977755;28;20187;-71
2023/05/09 10:16:04;;;;;;;78.70;74.65;;;26.50;90.00;;;;;;4970964;28;20216;-72
2023/05/09 10:18:30;;;;;;;89.30;84.35;;;26.70;88.50;;;;;;4972269;28;20676;-72
2023/05/09 10:21:00;;;;;;;105.60;100.30;;;26.10;88.80;;;;;;4970019;28;20184;-72
2023/05/09 10:23:29;;;;;;;110.85;105.20;;;25.20;90.90;;;;;;4971980;28;20227;-72
2023/05/09 10:26:21;;;;;;;101.35;96.10;;;25.10;91.10;;;;;;4970982;28;20355;-72
2023/05/09 10:28:52;;;;;;;107.03;101.63;;;25.40;90.80;;;;;;4951425;29;20184;-72
2023/05/09 10:31:26;;;;;;;81.80;77.63;;;25.30;91.00;;;;;;4951977;29;20202;-72
2023/05/09 10:33:54;;;;;;;98.32;93.25;;;25.10;91.90;;;;;;4953005;28;20220;-72
2023/05/09 10:36:22;;;;;;;87.82;83.13;;;25.30;91.20;;;;;;4952730;28;20200;-72
2023/05/09 10:38:57;;;;;;;77.53;73.53;;;25.10;91.10;;;;;;4956503;28;20193;-72
2023/05/09 10:41:24;;;;;;;93.20;88.30;;;25.50;91.30;;;;;;4966423;28;20191;-72
2023/05/09 10:43:50;;;;;;;108.53;103.03;;;26.50;90.50;;;;;;4975907;28;20476;-71
2023/05/09 10:46:16;;;;;;;68.03;64.45;;;27.40;88.70;;;;;;4975933;28;20220;-71
2023/05/09 10:48:43;;;;;;;28.50;26.73;;;27.70;86.30;;;;;;4975529;28;20645;-70
2023/05/09 10:51:10;;;;;;;27.67;25.98;;;27.90;84.60;;;;;;4974646;28;20185;-71
2023/05/09 10:53:45;;;;;;;19.67;18.42;;;27.30;85.40;;;;;;4975876;28;20268;-71
2023/05/09 10:56:31;;;;;;;57.13;53.97;;;26.70;85.80;;;;;;4991150;28;20235;-72
2023/05/09 10:58:58;;;;;;;75.07;71.22;;;25.90;87.80;;;;;;4994698;28;20187;-71
2023/05/09 11:01:35;;;;;;;83.15;78.70;;;26.40;88.40;;;;;;4993854;28;20602;-71
2023/05/09 11:04:11;;;;;;;110.50;104.70;;;26.00;89.50;;;;;;4995134;28;20617;-71
2023/05/09 11:06:40;;;;;;;111.63;105.97;;;25.50;89.80;;;;;;4995112;28;20211;-73
2023/05/09 11:09:33;;;;;;;118.40;112.43;;;25.60;89.50;;;;;;4986543;28;20204;-73
2023/05/09 11:12:04;;;;;;;96.80;91.78;;;25.80;89.90;;;;;;4969555;28;20193;-73
2023/05/09 11:14:30;;;;;;;103.85;98.45;;;26.00;88.00;;;;;;4975803;28;20231;-73
2023/05/09 11:16:58;;;;;;;112.03;106.35;;;25.70;90.20;;;;;;4974397;28;20180;-70
2023/05/09 11:19:50;;;;;;;85.68;81.25;;;25.40;89.30;;;;;;4975354;28;20268;-69
2023/05/09 11:22:29;;;;;;;97.97;92.95;;;25.20;90.70;;;;;;4973383;28;20283;-69
2023/05/09 11:25:07;;;;;;;85.63;81.13;;;25.40;90.20;;;;;;4989629;28;20209;-72
2023/05/09 11:27:48;;;;;;;44.88;42.28;;;24.90;90.70;;;;;;4990887;28;20183;-70
2023/05/09 11:30:16;;;;;;;30.98;29.17;;;24.80;91.10;;;;;;4975639;28;20247;-70
2023/05/09 11:32:54;;;;;;;37.40;35.13;;;24.70;91.90;;;;;;4975506;28;20213;-70
2023/05/09 11:35:22;;;;;;;21.02;19.65;;;24.40;91.90;;;;;;4975329;28;20201;-69
2023/05/09 11:38:05;;;;;;;10.70;9.70;;;24.10;92.80;;;;;;4986389;28;20607;-70
2023/05/09 11:40:33;;;;;;;10.70;9.85;;;24.00;93.50;;;;;;4962280;28;20263;-70
2023/05/09 11:43:00;;;;;;;10.02;9.23;;;23.90;93.40;;;;;;4955996;28;20185;-70
2023/05/09 11:45:31;;;;;;;9.48;8.77;;;23.80;93.90;;;;;;4964035;28;20581;-70
2023/05/09 11:47:57;;;;;;;8.32;7.72;;;23.80;93.60;;;;;;4972585;28;20188;-71
2023/05/09 11:50:23;;;;;;;8.77;8.07;;;24.00;94.00;;;;;;4975388;28;20177;-71
2023/05/09 11:52:49;;;;;;;12.35;11.45;;;24.50;93.40;;;;;;4994577;28;20227;-70
2023/05/09 11:55:18;;;;;;;19.80;18.50;;;24.80;92.00;;;;;;4993282;28;20196;-70
2023/05/09 11:57:49;;;;;;;28.90;26.85;;;25.10;91.50;;;;;;4994057;28;20184;-71
2023/05/09 12:00:17;;;;;;;65.00;61.60;;;25.80;91.30;;;;;;4994546;28;20211;-71
2023/05/09 12:02:44;;;;;;;104.05;98.93;;;26.30;90.60;;;;;;4994526;28;20180;-70
2023/05/09 12:05:16;;;;;;;97.50;92.53;;;26.40;90.00;;;;;;4986614;28;20272;-70
2023/05/09 12:07:42;;;;;;;105.18;99.78;;;26.20;90.30;;;;;;4973085;28;20181;-70
2023/05/09 12:10:10;;;;;;;96.10;91.30;;;26.60;88.90;;;;;;4973432;28;20185;-70
2023/05/09 12:12:40;;;;;;;56.42;53.50;;;27.20;87.80;;;;;;4974754;28;20649;-70
2023/05/09 12:15:08;;;;;;;63.75;60.50;;;27.70;85.50;;;;;;4974341;28;20224;-70
2023/05/09 12:17:36;;;;;;;104.03;98.90;;;27.00;87.10;;;;;;4974355;28;20273;-70
2023/05/09 12:20:04;;;;;;;99.35;94.38;;;26.20;88.40;;;;;;4988375;28;20184;-70
2023/05/09 12:22:31;;;;;;;106.32;100.88;;;25.40;91.20;;;;;;4993983;28;20180;-70
2023/05/09 12:25:04;;;;;;;80.80;76.65;;;25.30;90.80;;;;;;4993623;28;20208;-70
2023/05/09 12:27:31;;;;;;;33.90;32.05;;;25.10;91.00;;;;;;4992638;28;20180;-69
2023/05/09 12:30:00;;;;;;;21.98;20.83;;;24.90;91.80;;;;;;4994962;28;20664;-71
2023/05/09 12:32:31;;;;;;;24.00;22.55;;;25.20;91.90;;;;;;4991246;28;20292;-71
2023/05/09 12:34:58;;;;;;;23.27;21.98;;;25.40;91.50;;;;;;4976701;28;20228;-71
2023/05/09 12:37:24;;;;;;;21.92;20.75;;;25.10;91.40;;;;;;4993195;28;20192;-71
2023/05/09 12:40:05;;;;;;;23.88;22.58;;;25.30;91.70;;;;;;4993779;28;20184;-70
2023/05/09 12:42:34;;;;;;;36.65;34.60;;;25.50;91.40;;;;;;4993552;28;20598;-71
2023/05/09 12:45:06;;;;;;;55.50;52.55;;;25.80;91.30;;;;;;4993088;28;20665;-70
2023/05/09 12:47:32;;;;;;;31.05;29.40;;;25.60;90.60;;;;;;4982073;28;20629;-70
2023/05/09 12:50:03;;;;;;;22.50;21.30;;;24.80;91.80;;;;;;4973950;28;20650;-69
2023/05/09 12:52:34;;;;;;;11.23;10.52;;;24.60;92.10;;;;;;4974003;28;20216;-70
2023/05/09 12:55:08;;;;;;;8.90;8.27;;;24.50;92.50;;;;;;4973790;28;20260;-70
2023/05/09 12:57:34;;;;;;;7.68;7.25;;;24.60;92.90;;;;;;4973225;28;20185;-70
2023/05/09 13:00:05;;;;;;;8.98;8.48;;;24.60;92.80;;;;;;4972869;28;20697;-70
2023/05/09 13:02:40;;;;;;;9.95;9.27;;;24.70;92.50;;;;;;4990741;28;20184;-71
2023/05/09 13:05:10;;;;;;;14.85;13.85;;;25.10;92.30;;;;;;4993032;28;20638;-71
2023/05/09 13:07:44;;;;;;;37.33;35.45;;;25.50;91.80;;;;;;4992722;28;20185;-71
2023/05/09 13:10:13;;;;;;;31.80;29.85;;;25.60;91.00;;;;;;5015411;28;20196;-71
2023/05/09 13:12:43;;;;;;;20.73;19.33;;;25.20;91.50;;;;;;4993506;28;20215;-70
2023/05/09 13:15:10;;;;;;;20.00;18.88;;;25.10;92.10;;;;;;4986777;28;20256;-70
2023/05/09 13:17:36;;;;;;;21.92;20.77;;;25.40;91.70;;;;;;4973353;28;20184;-70
2023/05/09 13:20:05;;;;;;;48.35;45.78;;;25.90;91.50;;;;;;4973404;28;20188;-70
2023/05/09 13:22:32;;;;;;;58.25;55.40;;;26.00;90.90;;;;;;4973359;28;20521;-70
2023/05/09 13:24:57;;;;;;;92.55;88.05;;;26.30;90.70;;;;;;4972087;28;20209;-69
2023/05/09 13:27:23;;;;;;;93.55;88.88;;;27.20;88.20;;;;;;4973053;28;20200;-69
2023/05/09 13:29:49;;;;;;;67.20;63.67;;;27.90;86.10;;;;;;4978366;28;20172;-70
2023/05/09 13:32:15;;;;;;;80.07;75.60;;;27.70;84.80;;;;;;4963172;28;20190;-69
2023/05/09 13:34:41;;;;;;;99.50;94.43;;;27.10;85.70;;;;;;4971662;28;20228;-69
2023/05/09 13:37:07;;;;;;;97.20;92.20;;;26.30;87.50;;;;;;4972154;28;20181;-68
2023/05/09 13:39:32;;;;;;;61.80;58.70;;;25.50;89.70;;;;;;4972546;28;20193;-71
2023/05/09 13:41:58;;;;;;;46.17;43.85;;;25.10;91.10;;;;;;4971753;28;20673;-70
2023/05/09 13:44:24;;;;;;;56.78;53.83;;;25.00;90.80;;;;;;4982962;28;20743;-70
2023/05/09 13:46:50;;;;;;;77.20;73.43;;;25.60;90.50;;;;;;4992237;28;20216;-70
2023/05/09 13:49:15;;;;;;;105.70;100.50;;;26.30;90.30;;;;;;4991242;28;20550;-70
2023/05/09 13:51:41;;;;;;;83.15;78.88;;;26.40;88.80;;;;;;4992076;28;20176;-70
2023/05/09 13:54:11;;;;;;;50.17;47.65;;;25.60;89.90;;;;;;4992172;28;20208;-70
2023/05/09 13:56:41;;;;;;;73.72;70.05;;;25.30;90.90;;;;;;4992131;28;20181;-70
2023/05/09 13:59:07;;;;;;;50.67;48.15;;;25.60;90.20;;;;;;4982519;28;20223;-71
2023/05/09 14:01:34;;;;;;;38.08;36.00;;;25.30;90.50;;;;;;4972812;28;20181;-71
2023/05/09 14:04:00;;;;;;;56.55;53.70;;;25.10;90.60;;;;;;4972268;28;20612;-71
2023/05/09 14:06:27;;;;;;;73.88;70.22;;;25.70;90.10;;;;;;4973262;28;20569;-70
2023/05/09 14:08:55;;;;;;;87.95;83.70;;;26.70;89.90;;;;;;4979907;28;20654;-70
2023/05/09 14:11:20;;;;;;;100.10;95.32;;;26.80;86.00;;;;;;4972234;28;20657;-71
2023/05/09 14:13:46;;;;;;;55.83;52.83;;;27.40;85.80;;;;;;4983260;28;20184;-72
2023/05/09 14:16:12;;;;;;;38.58;36.65;;;28.00;84.00;;;;;;4972212;28;20591;-71
2023/05/09 14:18:38;;;;;;;41.20;39.20;;;27.70;83.40;;;;;;4970666;28;20686;-72
2023/05/09 14:21:05;;;;;;;69.53;66.15;;;27.10;84.00;;;;;;4972105;28;20193;-72
2023/05/09 14:23:31;;;;;;;74.80;71.03;;;26.70;86.00;;;;;;4972374;28;20188;-72
2023/05/09 14:25:57;;;;;;;93.38;88.82;;;26.50;85.60;;;;;;4972390;28;20719;-72
2023/05/09 14:28:22;;;;;;;96.78;91.82;;;26.30;86.90;;;;;;4978737;28;20187;-72
2023/05/09 14:30:48;;;;;;;107.25;102.07;;;26.20;86.40;;;;;;4979632;28;20190;-72
2023/05/09 14:33:14;;;;;;;106.78;101.40;;;26.50;86.50;;;;;;4956518;28;20190;-72
2023/05/09 14:35:40;;;;;;;94.57;90.07;;;26.50;87.10;;;;;;4960125;28;20215;-72
2023/05/09 14:38:06;;;;;;;99.35;94.28;;;26.60;86.80;;;;;;4969305;28;20280;-71
2023/05/09 14:40:32;;;;;;;82.72;78.72;;;26.50;86.60;;;;;;4972037;28;20185;-71
2023/05/09 14:43:01;;;;;;;81.80;77.63;;;26.50;85.40;;;;;;4970389;28;20251;-70
2023/05/09 14:45:27;;;;;;;87.93;83.70;;;26.40;86.80;;;;;;4988316;28;20600;-71
2023/05/09 14:47:53;;;;;;;91.55;87.10;;;26.00;86.50;;;;;;4990363;28;20189;-71
2023/05/09 14:50:20;;;;;;;92.57;88.15;;;25.50;88.00;;;;;;4991605;28;20183;-71
2023/05/09 14:52:47;;;;;;;90.35;85.85;;;25.60;89.00;;;;;;4997276;28;20164;-70
2023/05/09 14:55:13;;;;;;;94.00;89.47;;;25.70;88.50;;;;;;5007666;28;20203;-71
2023/05/09 14:57:39;;;;;;;83.70;79.70;;;25.70;86.80;;;;;;4988605;28;20177;-71
2023/05/09 15:00:05;;;;;;;78.65;74.70;;;25.30;89.90;;;;;;4972935;28;20185;-71
2023/05/09 15:02:31;;;;;;;51.97;49.47;;;24.80;90.00;;;;;;4972408;28;20229;-71
2023/05/09 15:04:57;;;;;;;21.42;20.42;;;24.50;90.60;;;;;;4971153;28;20205;-71
2023/05/09 15:07:23;;;;;;;12.18;10.93;;;24.10;91.50;;;;;;4970745;28;20181;-71
2023/05/09 15:09:49;;;;;;;7.50;7.20;;;23.90;92.30;;;;;;4972144;28;20264;-71
2023/05/09 15:12:14;;;;;;;6.13;5.72;;;23.70;92.60;;;;;;4972495;28;20557;-71
2023/05/09 15:14:40;;;;;;;5.75;5.40;;;23.70;93.00;;;;;;5007996;23;20233;-77
2023/05/09 15:17:06;;;;;;;5.05;4.55;;;23.60;93.10;;;;;;4971770;28;20275;-75
2023/05/09 15:19:34;;;;;;;10.35;9.77;;;23.40;95.00;;;;;;4971758;28;20205;-75
2023/05/09 15:22:02;;;;;;;6.97;6.55;;;22.50;96.70;;;;;;4971393;28;20601;-76
2023/05/09 15:24:28;;;;;;;21.00;19.65;;;21.70;98.70;;;;;;4974120;28;20231;-76
2023/05/09 15:26:54;;;;;;;143.63;134.85;;;21.00;99.90;;;;;;4973263;28;20567;-77